x

Halibut Bank (46146) Wave Buoy

7:00pm - Sun 19th Feb 2017 All times are PST. -8 hours from GMT.

  • Sig Wave height 3.0ft
  • Peak Period 4s
  • Wind
    22mph, 25mph gusts
  • Sea Temp 45°f
  • Air Temp 46°f
  • Sea Pressure 998.1mb
  • Halibut Bank
  • Halibut Bank

More Historic Weather Station data

Upgrade to MSW Pro to gain access to the past 30 days of data for over 8000 Wavebouys and Weather Stations around the globe.

Join Pro

Comparision Forecast

View Surf forecast
   
Sun 02/19 7:00pm 3ft 4s 22 25 mph 998.1mb 45f 46f
6:00pm 3.5ft 5s 22 27 mph 997.7mb 45f 46f
5:00pm 3ft 4s 22 27 mph 997mb 45f 46f
4:00pm 3ft 4s 20 22 mph 996.6mb 46f 46f
3:00pm 2.5ft 4s 22 27 mph 996.1mb 46f 45f
2:00pm 2.5ft 4s 20 27 mph 996mb 46f 45f
1:00pm 2.5ft 3s 22 25 mph 995.9mb 46f 44f
12:00pm 1.3ft 3s 20 25 mph 996.1mb 45f 44f
11:00am 1.3ft 3s 16 20 mph 996mb 45f 44f
10:00am 1.3ft 3s 16 18 mph 995.5mb 45f 44f
9:00am 1.6ft 3s 13 16 mph 995.4mb 45f 44f
8:00am 1.6ft 3s 16 18 mph 995.2mb 45f 44f
7:00am 1.3ft 3s 13 16 mph 994.9mb 45f 45f
6:00am 1.3ft 3s 16 18 mph 994.7mb 44f 44f
5:00am 0.7ft 2s 18 20 mph 994.4mb 44f 44f
4:00am 0.7ft 3s 7 9 mph 995mb 44f 41f
3:00am 1ft 3s 13 16 mph 995.2mb 44f 42f
2:00am 1ft 3s 13 16 mph 995.5mb 44f 43f
1:00am 1ft 3s 16 18 mph 995.7mb 44f 43f
12:00am 1ft 2s 13 16 mph 995.9mb 44f 43f
Sat 02/18 11:00pm 1ft 2s 13 16 mph 996mb 44f 43f
10:00pm 0.7ft 2s 11 13 mph 996.1mb 44f 43f
9:00pm 0.7ft 6s 11 13 mph 996.1mb 44f 43f
8:00pm 0.3ft 2s 11 13 mph 995.7mb 44f 43f
7:00pm 0.7ft 6s 9 11 mph 995.9mb 44f 43f
6:00pm 0.3ft 5s 11 13 mph 995.8mb 44f 43f
5:00pm 0.3ft 6s 2 4 mph 995.8mb 44f 43f
4:00pm 0.3ft 4s 2
mph
995.9mb 44f 43f
3:00pm 0.3ft 2s 7
mph
995.8mb 44f 42f
2:00pm 0.7ft 4s 7 9 mph 995.9mb 44f 42f
1:00pm 0.7ft 2s 7 9 mph 996.2mb 44f 41f
12:00pm 0.7ft 3s 9 11 mph 996.7mb 44f 41f
11:00am 1ft 3s 9 11 mph 997.1mb 44f 41f
10:00am 1ft 3s 9 11 mph 997.4mb 44f 41f
9:00am 1.3ft 4s 11
mph
997.8mb 44f 41f
8:00am 1.3ft 4s 9 11 mph 998.2mb 44f 41f
7:00am 1.6ft 4s 9 13 mph 998.4mb 44f 41f
6:00am 1.6ft 3s 18 20 mph 998.2mb 44f 42f
5:00am 2ft 4s 16 18 mph 998.5mb 44f 42f
4:00am 2ft 4s 16 18 mph 998.7mb 44f 42f
3:00am 2ft 4s 18 20 mph 999.1mb 44f 42f
2:00am 2ft 4s 18 22 mph 999.4mb 44f 42f
1:00am 1.6ft 4s 18 20 mph 999.8mb 44f 43f
12:00am 1.3ft 3s 18 20 mph 1000.1mb 44f 43f
Fri 02/17 11:00pm 1.6ft 3s 16 18 mph 1000.7mb 44f 44f
10:00pm 1.3ft 3s 18 20 mph 1001.3mb 44f 44f
9:00pm 1.3ft 3s 16 18 mph 1001.7mb 44f 44f
8:00pm 1.3ft 3s 16 18 mph 1002.4mb 44f 44f
7:00pm 1ft 2s 13
mph
1003mb 44f 45f
6:00pm 0.7ft 2s 13 16 mph 1003.2mb 44f 45f
5:00pm 0.3ft 6s 11 13 mph 1003.3mb 44f 45f
4:00pm 0.3ft 3s 9
mph
1004mb 45f 46f
3:00pm 0.3ft 3s 4
mph
1004.6mb 45f 46f
2:00pm 0.3ft 4s 2
mph
1005.2mb 45f 46f
1:00pm 0.7ft 3s 4 7 mph 1006mb 44f 46f
12:00pm 0.7ft 3s 4 7 mph 1006.7mb 44f 45f
11:00am 1ft 3s 7
mph
1007.2mb 44f 45f
10:00am 1ft 3s 13 16 mph 1006.9mb 44f 45f
9:00am 1.3ft 3s 13 16 mph 1007.1mb 44f 45f
8:00am 1.3ft 3s 13 16 mph 1007mb 44f 45f
7:00am 1.3ft 3s 13 18 mph 1006.8mb 44f 45f
6:00am 1.3ft 3s 16 20 mph 1006.6mb 44f 45f
5:00am 1.3ft 3s 13 18 mph 1006.6mb 44f 45f
4:00am 1.3ft 3s 16 18 mph 1006.5mb 44f 45f
3:00am 1.3ft 3s 16 18 mph 1006.3mb 44f 45f
2:00am 1ft 3s 13 18 mph 1005.9mb 44f 45f
1:00am 0.7ft 2s 13 16 mph 1005.8mb 44f 45f
12:00am 0.3ft 2s 9
mph
1005.1mb 44f 45f
Thu 02/16 11:00pm 0.7ft 5s 9 11 mph 1004.3mb 44f 45f
10:00pm 0.3ft 2s 9
mph
1003.3mb 44f 45f
9:00pm 0.7ft 2s 7 9 mph 1002.3mb 44f 46f
8:00pm 0.3ft 2s 4 7 mph 1001.9mb 44f 47f
7:00pm 0.7ft 2s 7 9 mph 1001mb 44f 46f
6:00pm 0.7ft 3s 13
mph
1000.1mb 44f 47f
5:00pm 1ft 3s 11 13 mph 999.2mb 44f 46f
4:00pm 0.7ft 2s 9 11 mph 999.2mb 44f 47f
3:00pm 1ft 3s 11 13 mph 998.3mb 44f 47f
2:00pm 1ft 3s 13 16 mph 997.6mb 44f 47f
1:00pm 1ft 3s 11 13 mph 996.8mb 44f 46f
12:00pm 1ft 3s 11 13 mph 996.5mb 44f 46f
11:00am 1ft 4s 2 4 mph 996.1mb 44f 48f
10:00am 1.3ft 4s 7 13 mph 995.3mb 44f 48f
9:00am 1.6ft 4s 9 11 mph 994.5mb 44f 48f
8:00am 2ft 5s 13 16 mph 993.4mb 44f 48f
7:00am 2.5ft 4s 13 16 mph 992.2mb 44f 48f
6:00am 3ft 5s 18 22 mph 991.5mb 44f 48f
5:00am 3ft 4s 13 18 mph 991.2mb 44f 48f